• Join FlightAware (Why Join?)
  • Login
  • US Flag 
02:30PM EDT


 

Airport Tracker/Info


-or-


 

Live Flight TrackerFlight Track Log ✈ JBU1329 ✈ 28-May-2013 ✈ KBOS - KBWI

Flight Track Log - Related Links

Times and Time Zones

All times are in EDT time to prevent confusion due to time zone crossing. See the JBU1329 flight status page for this flight to view local times or setup timezone preferences in your user account.

Time Position Orientation Groundspeed Altitude Reporting Facility
EDT Latitude Longitude Course Direction KTS MPH feet Rate Location/Type
09:11AM 42.3667 -70.9667 262° West 186 214 1,100  Level KA90
09:12AM 42.3833 -70.8833 75° East 186 214 3,500 2,160 Climbing KA90
09:13AM 42.3555 -70.7278 172° South  Level FlightAware Approximate
09:13AM 42.3908 -70.8125 82° East 268 308 5,700  Level Boston Center
09:14AM 42.2663 -70.7673 228° Southwest  Level FlightAware Approximate
09:14AM 42.3417 -70.7239 127° Southeast 308 354 8,900  Level Boston Center
09:15AM 42.2046 -70.8837 240° Southwest  Level FlightAware Approximate
09:15AM 42.2689 -70.7400 189° South 323 372 11,900  Level Boston Center
09:16AM 42.1781 -71.0193 262° West  Level FlightAware Approximate
09:16AM 42.2267 -70.8419 241° Southwest 282 325 13,700  Level Boston Center
09:17AM 42.2094 -70.9658 259° West 294 338 16,400 2,460 Climbing Boston Center
09:18AM 42.1903 -71.0978 259° West 321 369 18,700 2,280 Climbing Boston Center
09:19AM 42.1708 -71.2300 259° West 349 402 21,000 2,160 Climbing Boston Center
09:20AM 42.1494 -71.3703 258° West 368 423 23,100 1,980 Climbing Boston Center
09:21AM 42.1297 -71.5078 259° West 381 438 25,000 1,800 Climbing Boston Center
09:22AM 42.1039 -71.6483 256° West 387 445 26,800 1,620 Climbing Boston Center
09:23AM 42.0547 -71.7831 244° Southwest 399 459 28,300 1,440 Climbing Boston Center
09:24AM 41.9969 -71.9178 240° Southwest 411 473 29,700 1,500 Climbing Boston Center
09:25AM 41.9289 -72.0772 240° Southwest 416 479 31,700 1,020 Climbing Boston Center
09:26AM 41.8728 -72.2086 240° Southwest 416 479 32,000 120 Climbing Boston Center
09:27AM 41.8169 -72.3453 241° Southwest 416 479 32,000  Level Boston Center
09:28AM 41.7711 -72.4539 241° Southwest 421 484 32,000  Level Boston Center
09:29AM 41.7000 -72.6181 240° Southwest 421 484 32,000  Level Boston Center
09:30AM 41.6414 -72.7511 240° Southwest 421 484 32,000  Level Boston Center
09:31AM 41.5847 -72.8897 241° Southwest 426 490 32,000  Level Boston Center
09:32AM 41.5297 -73.0197 241° Southwest 426 490 32,000  Level Boston Center
09:33AM 41.4708 -73.1494 239° Southwest 420 483 32,000  Level Boston Center
09:35AM 41.3525 -73.4244 240° Southwest 429 494 32,000  Level New York Center
09:36AM 41.2933 -73.5575 239° Southwest 429 494 32,000  Level New York Center
09:37AM 41.2300 -73.6733 234° Southwest 429 494 32,000  Level New York Center
09:38AM 41.1561 -73.7969 232° Southwest 435 501 32,000  Level New York Center
09:39AM 41.0822 -73.9203 232° Southwest 435 501 32,000  Level New York Center
09:40AM 41.0100 -74.0461 233° Southwest 435 501 32,000 -240 Level New York Center
09:41AM 40.9358 -74.1661 231° Southwest 430 495 31,600 -1,080 Descending New York Center
09:42AM 40.8594 -74.2831 229° Southwest 430 495 29,900 -1,800 Descending New York Center
09:43AM 40.7869 -74.4081 233° Southwest 430 495 28,000 -960 Descending New York Center
09:44AM 40.7122 -74.5300 231° Southwest 430 495 28,000  Level New York Center
09:45AM 40.6394 -74.6492 231° Southwest 430 495 28,000  Level New York Center
09:46AM 40.5600 -74.7894 233° Southwest 435 501 28,000  Level New York Center
09:47AM 40.5153 -74.9314 248° West 425 489 28,000  Level New York Center
09:48AM 40.4728 -75.0708 248° West 420 483 28,000 -660 Level New York Center
09:49AM 40.4300 -75.2153 249° West 420 483 26,800 -1,680 Descending New York Center
09:50AM 40.3731 -75.3422 240° Southwest 425 489 24,700 -2,100 Descending New York Center
09:51AM 40.2978 -75.4544 229° Southwest 413 475 22,600 -2,160 Descending New York Center
09:52AM 40.2206 -75.5633 227° Southwest 413 475 20,500 -2,160 Descending New York Center
09:53AM 40.1122 -75.6103 198° South 399 459 18,400 -1,800 Descending New York Center
09:54AM 40.0317 -75.6914 218° Southwest 385 443 16,900 -1,860 Descending New York Center
09:55AM 39.9653 -75.7869 228° Southwest 365 420 14,700 -2,040 Descending New York Center
09:56AM 39.9075 -75.8667 227° Southwest 355 409 12,900 -960 Descending New York Center
09:58AM 39.7833 -76.0333 226° Southwest 301 346 12,000 -360 Descending Potomac TRACON
09:59AM 39.7333 -76.1167 232° Southwest 295 339 12,000 -480 Level Potomac TRACON
10:00AM 39.6667 -76.1833 218° Southwest 293 337 11,100 -1,560 Descending Potomac TRACON
10:01AM 39.6000 -76.2500 218° Southwest 292 336 8,800 -1,980 Descending Potomac TRACON
10:02AM 39.5333 -76.3000 210° Southwest 289 333 7,200 -1,560 Descending Potomac TRACON
10:03AM 39.4833 -76.3667 226° Southwest 261 300 5,900 -1,200 Descending Potomac TRACON
10:04AM 39.4333 -76.4167 218° Southwest 258 297 5,000 -720 Descending Potomac TRACON
10:05AM 39.3667 -76.4500 201° Southwest 263 303 4,600 -900 Descending Potomac TRACON
10:06AM 39.2833 -76.4500 180° South 256 295 3,200 -1,380 Descending Potomac TRACON
10:07AM 39.2333 -76.4667 194° South 252 290 2,000 -780 Descending Potomac TRACON
10:08AM 39.1833 -76.5000 207° Southwest 208 239 1,800 -240 Descending Potomac TRACON